sensor_id;sensor_type;location;lat;lon;timestamp;temperature;humidity
5246;DHT22;54412;51.206;6.888;2023-02-15T00:01:40;6.80;99.90
5246;DHT22;54412;51.206;6.888;2023-02-15T00:04:07;6.90;99.90
5246;DHT22;54412;51.206;6.888;2023-02-15T00:06:34;6.80;99.90
5246;DHT22;54412;51.206;6.888;2023-02-15T00:09:01;6.80;99.90
5246;DHT22;54412;51.206;6.888;2023-02-15T00:11:28;6.80;99.90
5246;DHT22;54412;51.206;6.888;2023-02-15T00:16:36;7.10;99.90
5246;DHT22;54412;51.206;6.888;2023-02-15T00:19:03;7.10;99.90
5246;DHT22;54412;51.206;6.888;2023-02-15T00:21:31;7.00;99.90
5246;DHT22;54412;51.206;6.888;2023-02-15T00:23:59;7.00;99.90
5246;DHT22;54412;51.206;6.888;2023-02-15T00:26:26;6.90;99.90
5246;DHT22;54412;51.206;6.888;2023-02-15T00:28:53;6.90;99.90
5246;DHT22;54412;51.206;6.888;2023-02-15T00:31:20;6.70;99.90
5246;DHT22;54412;51.206;6.888;2023-02-15T00:33:46;6.60;99.90
5246;DHT22;54412;51.206;6.888;2023-02-15T00:36:12;6.60;99.90
5246;DHT22;54412;51.206;6.888;2023-02-15T00:38:38;6.50;99.90
5246;DHT22;54412;51.206;6.888;2023-02-15T00:41:06;6.60;99.90
5246;DHT22;54412;51.206;6.888;2023-02-15T00:43:33;6.60;99.90
5246;DHT22;54412;51.206;6.888;2023-02-15T00:46:01;6.50;99.90
5246;DHT22;54412;51.206;6.888;2023-02-15T00:48:28;6.50;99.90
5246;DHT22;54412;51.206;6.888;2023-02-15T00:50:56;6.50;99.90
5246;DHT22;54412;51.206;6.888;2023-02-15T00:53:24;6.60;99.90
5246;DHT22;54412;51.206;6.888;2023-02-15T00:55:52;6.60;99.90
5246;DHT22;54412;51.206;6.888;2023-02-15T00:58:17;6.30;99.90
5246;DHT22;54412;51.206;6.888;2023-02-15T01:00:45;6.40;99.90
5246;DHT22;54412;51.206;6.888;2023-02-15T01:03:13;6.40;99.90
5246;DHT22;54412;51.206;6.888;2023-02-15T01:05:40;6.50;99.90
5246;DHT22;54412;51.206;6.888;2023-02-15T01:08:06;6.50;99.90
5246;DHT22;54412;51.206;6.888;2023-02-15T01:10:33;6.20;99.90
5246;DHT22;54412;51.206;6.888;2023-02-15T01:13:00;6.30;99.90
5246;DHT22;54412;51.206;6.888;2023-02-15T01:15:26;6.40;99.90
5246;DHT22;54412;51.206;6.888;2023-02-15T01:17:52;6.30;99.90
5246;DHT22;54412;51.206;6.888;2023-02-15T01:20:20;6.20;99.90
5246;DHT22;54412;51.206;6.888;2023-02-15T01:22:47;6.10;99.90
5246;DHT22;54412;51.206;6.888;2023-02-15T01:25:15;6.10;99.90
5246;DHT22;54412;51.206;6.888;2023-02-15T01:27:45;6.20;99.90
5246;DHT22;54412;51.206;6.888;2023-02-15T01:30:11;6.10;99.90
5246;DHT22;54412;51.206;6.888;2023-02-15T01:32:39;6.10;99.90
5246;DHT22;54412;51.206;6.888;2023-02-15T01:35:05;6.10;99.90
5246;DHT22;54412;51.206;6.888;2023-02-15T01:37:33;6.30;99.90
5246;DHT22;54412;51.206;6.888;2023-02-15T01:40:00;6.40;99.90
5246;DHT22;54412;51.206;6.888;2023-02-15T01:42:27;6.30;99.90
5246;DHT22;54412;51.206;6.888;2023-02-15T01:44:56;6.10;99.90
5246;DHT22;54412;51.206;6.888;2023-02-15T01:47:45;5.90;99.90
5246;DHT22;54412;51.206;6.888;2023-02-15T01:50:36;5.80;99.90
5246;DHT22;54412;51.206;6.888;2023-02-15T01:53:21;5.80;99.90
5246;DHT22;54412;51.206;6.888;2023-02-15T01:56:12;5.70;99.90
5246;DHT22;54412;51.206;6.888;2023-02-15T01:58:42;5.80;99.90
5246;DHT22;54412;51.206;6.888;2023-02-15T02:01:09;5.70;99.90
5246;DHT22;54412;51.206;6.888;2023-02-15T02:03:56;5.80;99.90
5246;DHT22;54412;51.206;6.888;2023-02-15T02:06:24;6.00;99.90
5246;DHT22;54412;51.206;6.888;2023-02-15T02:08:52;5.90;99.90
5246;DHT22;54412;51.206;6.888;2023-02-15T02:11:18;6.00;99.90
5246;DHT22;54412;51.206;6.888;2023-02-15T02:13:44;6.00;99.90
5246;DHT22;54412;51.206;6.888;2023-02-15T02:22:18;6.00;99.90
5246;DHT22;54412;51.206;6.888;2023-02-15T02:42:39;5.70;99.90
5246;DHT22;54412;51.206;6.888;2023-02-15T02:45:16;5.60;99.90
5246;DHT22;54412;51.206;6.888;2023-02-15T02:47:55;5.60;99.90
5246;DHT22;54412;51.206;6.888;2023-02-15T02:50:28;5.40;99.90
5246;DHT22;54412;51.206;6.888;2023-02-15T02:52:56;5.50;99.90
5246;DHT22;54412;51.206;6.888;2023-02-15T03:01:41;5.60;99.90
5246;DHT22;54412;51.206;6.888;2023-02-15T03:04:15;5.60;99.90
5246;DHT22;54412;51.206;6.888;2023-02-15T03:06:57;5.70;99.90
5246;DHT22;54412;51.206;6.888;2023-02-15T03:09:33;5.70;99.90
5246;DHT22;54412;51.206;6.888;2023-02-15T03:12:11;5.60;99.90
5246;DHT22;54412;51.206;6.888;2023-02-15T03:14:38;5.60;99.90
5246;DHT22;54412;51.206;6.888;2023-02-15T03:17:06;5.50;99.90
5246;DHT22;54412;51.206;6.888;2023-02-15T03:19:35;5.40;99.90
5246;DHT22;54412;51.206;6.888;2023-02-15T03:22:06;5.30;99.90
5246;DHT22;54412;51.206;6.888;2023-02-15T03:24:56;5.20;99.90
5246;DHT22;54412;51.206;6.888;2023-02-15T03:27:32;4.90;99.90
5246;DHT22;54412;51.206;6.888;2023-02-15T03:30:03;5.10;99.90
5246;DHT22;54412;51.206;6.888;2023-02-15T03:32:32;5.00;99.90
5246;DHT22;54412;51.206;6.888;2023-02-15T03:35:02;5.10;99.90
5246;DHT22;54412;51.206;6.888;2023-02-15T03:37:47;5.00;99.90
5246;DHT22;54412;51.206;6.888;2023-02-15T03:40:23;5.10;99.90
5246;DHT22;54412;51.206;6.888;2023-02-15T03:46:29;5.30;99.90
5246;DHT22;54412;51.206;6.888;2023-02-15T03:49:08;5.30;99.90
5246;DHT22;54412;51.206;6.888;2023-02-15T03:51:42;5.30;99.90
5246;DHT22;54412;51.206;6.888;2023-02-15T03:57:04;5.40;99.90
5246;DHT22;54412;51.206;6.888;2023-02-15T03:59:51;5.40;99.90
5246;DHT22;54412;51.206;6.888;2023-02-15T04:02:41;5.50;99.90
5246;DHT22;54412;51.206;6.888;2023-02-15T04:05:11;5.30;99.90
5246;DHT22;54412;51.206;6.888;2023-02-15T04:07:37;5.40;99.90
5246;DHT22;54412;51.206;6.888;2023-02-15T04:10:02;5.40;99.90
5246;DHT22;54412;51.206;6.888;2023-02-15T04:12:47;5.50;99.90
5246;DHT22;54412;51.206;6.888;2023-02-15T04:15:13;5.30;99.90
5246;DHT22;54412;51.206;6.888;2023-02-15T04:17:57;5.30;99.90
5246;DHT22;54412;51.206;6.888;2023-02-15T04:20:23;5.10;99.90
5246;DHT22;54412;51.206;6.888;2023-02-15T04:23:07;5.10;99.90
5246;DHT22;54412;51.206;6.888;2023-02-15T04:25:51;5.00;99.90
5246;DHT22;54412;51.206;6.888;2023-02-15T04:28:17;5.00;99.90
5246;DHT22;54412;51.206;6.888;2023-02-15T04:30:43;4.80;99.90
5246;DHT22;54412;51.206;6.888;2023-02-15T04:33:08;4.60;99.90
5246;DHT22;54412;51.206;6.888;2023-02-15T04:35:34;4.80;99.90
5246;DHT22;54412;51.206;6.888;2023-02-15T04:38:00;4.70;99.90
5246;DHT22;54412;51.206;6.888;2023-02-15T04:40:26;4.70;99.90
5246;DHT22;54412;51.206;6.888;2023-02-15T04:42:51;4.50;99.90
5246;DHT22;54412;51.206;6.888;2023-02-15T04:45:17;4.50;99.90
5246;DHT22;54412;51.206;6.888;2023-02-15T04:47:43;4.70;99.90
5246;DHT22;54412;51.206;6.888;2023-02-15T04:50:10;4.70;99.90
5246;DHT22;54412;51.206;6.888;2023-02-15T04:52:35;4.80;99.90
5246;DHT22;54412;51.206;6.888;2023-02-15T04:55:01;4.80;99.90
5246;DHT22;54412;51.206;6.888;2023-02-15T04:57:27;4.70;99.90
5246;DHT22;54412;51.206;6.888;2023-02-15T04:59:53;4.70;99.90
5246;DHT22;54412;51.206;6.888;2023-02-15T05:02:18;4.80;99.90
5246;DHT22;54412;51.206;6.888;2023-02-15T05:04:44;4.80;99.90
5246;DHT22;54412;51.206;6.888;2023-02-15T05:07:10;4.80;99.90
5246;DHT22;54412;51.206;6.888;2023-02-15T05:09:35;4.80;99.90
5246;DHT22;54412;51.206;6.888;2023-02-15T05:12:01;4.40;99.90
5246;DHT22;54412;51.206;6.888;2023-02-15T05:14:27;4.50;99.90
5246;DHT22;54412;51.206;6.888;2023-02-15T05:16:53;4.70;99.90
5246;DHT22;54412;51.206;6.888;2023-02-15T05:19:19;4.60;99.90
5246;DHT22;54412;51.206;6.888;2023-02-15T05:21:45;4.70;99.90
5246;DHT22;54412;51.206;6.888;2023-02-15T05:24:10;4.70;99.90
5246;DHT22;54412;51.206;6.888;2023-02-15T05:26:55;4.70;99.90
5246;DHT22;54412;51.206;6.888;2023-02-15T05:29:39;4.70;99.90
5246;DHT22;54412;51.206;6.888;2023-02-15T05:32:05;4.60;99.90
5246;DHT22;54412;51.206;6.888;2023-02-15T05:34:30;4.60;99.90
5246;DHT22;54412;51.206;6.888;2023-02-15T05:36:56;4.60;99.90
5246;DHT22;54412;51.206;6.888;2023-02-15T05:39:22;4.40;99.90
5246;DHT22;54412;51.206;6.888;2023-02-15T05:41:47;4.60;99.90
5246;DHT22;54412;51.206;6.888;2023-02-15T05:44:13;4.70;99.90
5246;DHT22;54412;51.206;6.888;2023-02-15T05:46:39;4.70;99.90
5246;DHT22;54412;51.206;6.888;2023-02-15T05:49:04;4.40;99.90
5246;DHT22;54412;51.206;6.888;2023-02-15T05:51:30;4.40;99.90
5246;DHT22;54412;51.206;6.888;2023-02-15T05:53:56;4.40;99.90
5246;DHT22;54412;51.206;6.888;2023-02-15T05:56:21;4.40;99.90
5246;DHT22;54412;51.206;6.888;2023-02-15T05:58:47;4.50;99.90
5246;DHT22;54412;51.206;6.888;2023-02-15T06:01:18;4.50;99.90
5246;DHT22;54412;51.206;6.888;2023-02-15T06:03:45;4.40;99.90
5246;DHT22;54412;51.206;6.888;2023-02-15T06:06:11;4.40;99.90
5246;DHT22;54412;51.206;6.888;2023-02-15T06:08:37;4.60;99.90
5246;DHT22;54412;51.206;6.888;2023-02-15T06:11:04;4.60;99.90
5246;DHT22;54412;51.206;6.888;2023-02-15T06:13:30;4.60;99.90
5246;DHT22;54412;51.206;6.888;2023-02-15T06:15:56;4.70;99.90
5246;DHT22;54412;51.206;6.888;2023-02-15T06:18:22;4.60;99.90
5246;DHT22;54412;51.206;6.888;2023-02-15T06:20:48;4.10;99.90
5246;DHT22;54412;51.206;6.888;2023-02-15T06:23:14;4.20;99.90
5246;DHT22;54412;51.206;6.888;2023-02-15T06:25:40;4.20;99.90
5246;DHT22;54412;51.206;6.888;2023-02-15T06:28:06;4.20;99.90
5246;DHT22;54412;51.206;6.888;2023-02-15T06:30:31;4.10;99.90
5246;DHT22;54412;51.206;6.888;2023-02-15T06:32:57;4.30;99.90
5246;DHT22;54412;51.206;6.888;2023-02-15T06:35:23;4.30;99.90
5246;DHT22;54412;51.206;6.888;2023-02-15T06:37:49;4.30;99.90
5246;DHT22;54412;51.206;6.888;2023-02-15T06:40:15;4.20;99.90
5246;DHT22;54412;51.206;6.888;2023-02-15T06:42:41;4.30;99.90
5246;DHT22;54412;51.206;6.888;2023-02-15T06:45:08;4.10;99.90
5246;DHT22;54412;51.206;6.888;2023-02-15T06:47:35;4.10;99.90
5246;DHT22;54412;51.206;6.888;2023-02-15T06:50:01;4.00;99.90
5246;DHT22;54412;51.206;6.888;2023-02-15T06:52:27;4.10;99.90
5246;DHT22;54412;51.206;6.888;2023-02-15T06:54:53;4.00;99.90
5246;DHT22;54412;51.206;6.888;2023-02-15T06:57:19;4.00;99.90
5246;DHT22;54412;51.206;6.888;2023-02-15T06:59:44;4.10;99.90
5246;DHT22;54412;51.206;6.888;2023-02-15T07:02:12;4.10;99.90
5246;DHT22;54412;51.206;6.888;2023-02-15T07:04:38;3.90;99.90
5246;DHT22;54412;51.206;6.888;2023-02-15T07:07:04;4.10;99.90
5246;DHT22;54412;51.206;6.888;2023-02-15T07:09:29;4.10;99.90
5246;DHT22;54412;51.206;6.888;2023-02-15T07:11:55;4.10;99.90
5246;DHT22;54412;51.206;6.888;2023-02-15T07:14:39;4.00;99.90
5246;DHT22;54412;51.206;6.888;2023-02-15T07:17:06;4.00;99.90
5246;DHT22;54412;51.206;6.888;2023-02-15T07:19:32;3.90;99.90
5246;DHT22;54412;51.206;6.888;2023-02-15T07:21:57;4.00;99.90
5246;DHT22;54412;51.206;6.888;2023-02-15T07:24:23;4.00;99.90
5246;DHT22;54412;51.206;6.888;2023-02-15T07:26:49;4.30;99.90
5246;DHT22;54412;51.206;6.888;2023-02-15T07:29:14;4.50;99.90
5246;DHT22;54412;51.206;6.888;2023-02-15T07:31:41;4.20;99.90
5246;DHT22;54412;51.206;6.888;2023-02-15T07:34:10;4.00;99.90
5246;DHT22;54412;51.206;6.888;2023-02-15T07:36:36;4.20;99.90
5246;DHT22;54412;51.206;6.888;2023-02-15T07:39:02;4.40;99.90
5246;DHT22;54412;51.206;6.888;2023-02-15T07:41:28;4.30;99.90
5246;DHT22;54412;51.206;6.888;2023-02-15T07:43:54;4.30;99.90
5246;DHT22;54412;51.206;6.888;2023-02-15T07:46:19;4.20;99.90
5246;DHT22;54412;51.206;6.888;2023-02-15T07:48:46;4.30;99.90
5246;DHT22;54412;51.206;6.888;2023-02-15T07:51:13;4.20;99.90
5246;DHT22;54412;51.206;6.888;2023-02-15T07:53:40;4.20;99.90
5246;DHT22;54412;51.206;6.888;2023-02-15T07:56:09;4.30;99.90
5246;DHT22;54412;51.206;6.888;2023-02-15T07:58:36;4.30;99.90
5246;DHT22;54412;51.206;6.888;2023-02-15T08:01:23;4.30;99.90
5246;DHT22;54412;51.206;6.888;2023-02-15T08:03:51;4.40;99.90
5246;DHT22;54412;51.206;6.888;2023-02-15T08:06:19;4.50;99.90
5246;DHT22;54412;51.206;6.888;2023-02-15T08:08:45;4.60;99.90
5246;DHT22;54412;51.206;6.888;2023-02-15T08:11:19;4.80;99.90
5246;DHT22;54412;51.206;6.888;2023-02-15T08:16:41;5.10;99.90
5246;DHT22;54412;51.206;6.888;2023-02-15T08:19:24;5.10;99.90
5246;DHT22;54412;51.206;6.888;2023-02-15T08:22:00;5.40;99.90
5246;DHT22;54412;51.206;6.888;2023-02-15T08:24:31;5.60;99.90
5246;DHT22;54412;51.206;6.888;2023-02-15T08:26:59;5.80;99.90
5246;DHT22;54412;51.206;6.888;2023-02-15T08:29:28;5.70;99.90
5246;DHT22;54412;51.206;6.888;2023-02-15T08:31:58;6.00;99.90
5246;DHT22;54412;51.206;6.888;2023-02-15T08:34:38;6.30;99.90
5246;DHT22;54412;51.206;6.888;2023-02-15T08:37:05;6.30;99.90
5246;DHT22;54412;51.206;6.888;2023-02-15T08:39:31;6.60;99.90
5246;DHT22;54412;51.206;6.888;2023-02-15T08:41:58;6.80;99.90
5246;DHT22;54412;51.206;6.888;2023-02-15T08:44:24;6.90;99.90
5246;DHT22;54412;51.206;6.888;2023-02-15T08:46:50;7.00;99.90
5246;DHT22;54412;51.206;6.888;2023-02-15T08:49:18;7.10;99.90
5246;DHT22;54412;51.206;6.888;2023-02-15T08:51:46;7.10;99.90
5246;DHT22;54412;51.206;6.888;2023-02-15T08:54:16;7.30;99.90
5246;DHT22;54412;51.206;6.888;2023-02-15T08:56:45;7.50;99.90
5246;DHT22;54412;51.206;6.888;2023-02-15T08:59:19;7.10;99.90
5246;DHT22;54412;51.206;6.888;2023-02-15T09:01:47;7.20;99.90
5246;DHT22;54412;51.206;6.888;2023-02-15T09:04:15;7.00;99.90
5246;DHT22;54412;51.206;6.888;2023-02-15T09:06:42;7.50;99.90
5246;DHT22;54412;51.206;6.888;2023-02-15T09:09:10;7.60;99.90
5246;DHT22;54412;51.206;6.888;2023-02-15T09:11:39;7.70;99.90
5246;DHT22;54412;51.206;6.888;2023-02-15T09:14:12;8.00;99.90
5246;DHT22;54412;51.206;6.888;2023-02-15T09:16:48;8.10;99.90
5246;DHT22;54412;51.206;6.888;2023-02-15T09:19:18;8.10;99.90
5246;DHT22;54412;51.206;6.888;2023-02-15T09:21:45;8.30;99.90
5246;DHT22;54412;51.206;6.888;2023-02-15T09:24:13;8.40;99.90
5246;DHT22;54412;51.206;6.888;2023-02-15T09:26:42;8.40;99.90
5246;DHT22;54412;51.206;6.888;2023-02-15T09:29:11;8.70;99.90
5246;DHT22;54412;51.206;6.888;2023-02-15T09:31:40;9.00;99.90
5246;DHT22;54412;51.206;6.888;2023-02-15T09:34:14;9.10;99.90
5246;DHT22;54412;51.206;6.888;2023-02-15T09:36:43;8.70;99.90
5246;DHT22;54412;51.206;6.888;2023-02-15T09:51:19;9.30;99.90
5246;DHT22;54412;51.206;6.888;2023-02-15T09:54:04;9.60;99.90
5246;DHT22;54412;51.206;6.888;2023-02-15T09:56:53;9.70;99.90
5246;DHT22;54412;51.206;6.888;2023-02-15T10:28:20;10.70;99.90
5246;DHT22;54412;51.206;6.888;2023-02-15T10:30:57;10.60;99.90
5246;DHT22;54412;51.206;6.888;2023-02-15T10:36:29;10.80;99.90
5246;DHT22;54412;51.206;6.888;2023-02-15T10:50:51;11.20;99.90
5246;DHT22;54412;51.206;6.888;2023-02-15T11:03:05;11.70;99.90
5246;DHT22;54412;51.206;6.888;2023-02-15T11:08:23;11.80;99.90
5246;DHT22;54412;51.206;6.888;2023-02-15T11:10:57;11.70;99.90
5246;DHT22;54412;51.206;6.888;2023-02-15T11:13:29;11.90;99.90
5246;DHT22;54412;51.206;6.888;2023-02-15T11:16:08;12.20;99.90
5246;DHT22;54412;51.206;6.888;2023-02-15T11:18:57;12.00;99.90
5246;DHT22;54412;51.206;6.888;2023-02-15T11:21:37;12.20;99.90
5246;DHT22;54412;51.206;6.888;2023-02-15T11:24:14;12.30;99.90
5246;DHT22;54412;51.206;6.888;2023-02-15T11:26:44;12.60;99.90
5246;DHT22;54412;51.206;6.888;2023-02-15T11:29:36;12.70;99.90
5246;DHT22;54412;51.206;6.888;2023-02-15T11:32:25;13.20;99.90
5246;DHT22;54412;51.206;6.888;2023-02-15T11:37:46;13.00;99.90
5246;DHT22;54412;51.206;6.888;2023-02-15T11:40:30;12.80;99.90
5246;DHT22;54412;51.206;6.888;2023-02-15T11:43:13;12.70;99.90
5246;DHT22;54412;51.206;6.888;2023-02-15T11:45:47;13.10;99.90
5246;DHT22;54412;51.206;6.888;2023-02-15T11:48:14;13.10;99.90
5246;DHT22;54412;51.206;6.888;2023-02-15T11:50:42;13.30;99.90
5246;DHT22;54412;51.206;6.888;2023-02-15T11:53:15;13.30;99.90
5246;DHT22;54412;51.206;6.888;2023-02-15T11:55:45;13.50;99.90
5246;DHT22;54412;51.206;6.888;2023-02-15T12:01:18;13.60;99.90
5246;DHT22;54412;51.206;6.888;2023-02-15T12:04:40;14.10;99.90
5246;DHT22;54412;51.206;6.888;2023-02-15T12:12:34;13.40;99.90
5246;DHT22;54412;51.206;6.888;2023-02-15T12:15:04;13.40;99.90
5246;DHT22;54412;51.206;6.888;2023-02-15T12:17:34;14.00;99.90
5246;DHT22;54412;51.206;6.888;2023-02-15T12:20:26;14.10;99.90
5246;DHT22;54412;51.206;6.888;2023-02-15T12:23:02;13.90;99.90
5246;DHT22;54412;51.206;6.888;2023-02-15T12:25:37;14.20;99.90
5246;DHT22;54412;51.206;6.888;2023-02-15T12:28:25;14.30;99.90
5246;DHT22;54412;51.206;6.888;2023-02-15T12:31:30;14.60;99.90
5246;DHT22;54412;51.206;6.888;2023-02-15T12:33:56;14.40;99.90
5246;DHT22;54412;51.206;6.888;2023-02-15T12:36:44;14.60;99.90
5246;DHT22;54412;51.206;6.888;2023-02-15T12:39:30;14.40;99.90
5246;DHT22;54412;51.206;6.888;2023-02-15T12:42:16;14.60;99.90
5246;DHT22;54412;51.206;6.888;2023-02-15T12:44:58;14.60;99.90
5246;DHT22;54412;51.206;6.888;2023-02-15T12:47:23;14.40;99.90
5246;DHT22;54412;51.206;6.888;2023-02-15T12:50:24;14.90;99.90
5246;DHT22;54412;51.206;6.888;2023-02-15T12:53:13;15.40;99.00
5246;DHT22;54412;51.206;6.888;2023-02-15T12:58:23;15.40;98.60
5246;DHT22;54412;51.206;6.888;2023-02-15T13:03:35;15.60;97.60
5246;DHT22;54412;51.206;6.888;2023-02-15T13:06:03;15.90;97.90
5246;DHT22;54412;51.206;6.888;2023-02-15T13:09:05;15.80;97.20
5246;DHT22;54412;51.206;6.888;2023-02-15T13:11:41;15.50;98.30
5246;DHT22;54412;51.206;6.888;2023-02-15T13:14:31;15.90;97.40
5246;DHT22;54412;51.206;6.888;2023-02-15T13:17:00;15.50;97.70
5246;DHT22;54412;51.206;6.888;2023-02-15T13:19:42;15.50;98.40
5246;DHT22;54412;51.206;6.888;2023-02-15T13:22:19;15.80;96.70
5246;DHT22;54412;51.206;6.888;2023-02-15T13:25:22;15.90;96.80
5246;DHT22;54412;51.206;6.888;2023-02-15T13:27:53;16.20;96.70
5246;DHT22;54412;51.206;6.888;2023-02-15T13:30:26;16.00;96.20
5246;DHT22;54412;51.206;6.888;2023-02-15T13:33:00;16.20;96.00
5246;DHT22;54412;51.206;6.888;2023-02-15T13:35:39;16.50;95.30
5246;DHT22;54412;51.206;6.888;2023-02-15T13:38:35;16.50;95.10
5246;DHT22;54412;51.206;6.888;2023-02-15T13:41:30;16.40;95.80
5246;DHT22;54412;51.206;6.888;2023-02-15T13:47:06;16.40;94.80
5246;DHT22;54412;51.206;6.888;2023-02-15T13:52:25;16.80;94.70
5246;DHT22;54412;51.206;6.888;2023-02-15T13:55:15;17.00;94.20
5246;DHT22;54412;51.206;6.888;2023-02-15T14:04:10;16.30;93.10
5246;DHT22;54412;51.206;6.888;2023-02-15T14:15:41;16.50;93.20
5246;DHT22;54412;51.206;6.888;2023-02-15T14:21:19;17.10;93.00
5246;DHT22;54412;51.206;6.888;2023-02-15T14:27:38;17.20;93.10
5246;DHT22;54412;51.206;6.888;2023-02-15T14:30:18;17.20;92.50
5246;DHT22;54412;51.206;6.888;2023-02-15T14:32:50;16.80;92.10
5246;DHT22;54412;51.206;6.888;2023-02-15T14:35:26;16.60;93.60
5246;DHT22;54412;51.206;6.888;2023-02-15T14:41:13;15.90;94.00
5246;DHT22;54412;51.206;6.888;2023-02-15T14:47:28;15.80;94.40
5246;DHT22;54412;51.206;6.888;2023-02-15T14:49:42;15.60;95.10
5246;DHT22;54412;51.206;6.888;2023-02-15T14:52:11;15.80;95.40
5246;DHT22;54412;51.206;6.888;2023-02-15T15:04:38;15.20;95.80
5246;DHT22;54412;51.206;6.888;2023-02-15T15:07:19;15.40;96.20
5246;DHT22;54412;51.206;6.888;2023-02-15T15:12:44;15.20;97.60
5246;DHT22;54412;51.206;6.888;2023-02-15T15:15:34;15.10;97.60
5246;DHT22;54412;51.206;6.888;2023-02-15T15:20:48;14.80;97.60
5246;DHT22;54412;51.206;6.888;2023-02-15T15:37:43;14.60;99.00
5246;DHT22;54412;51.206;6.888;2023-02-15T15:46:15;14.40;99.90
5246;DHT22;54412;51.206;6.888;2023-02-15T15:49:14;14.20;99.90
5246;DHT22;54412;51.206;6.888;2023-02-15T15:51:44;14.30;99.90
5246;DHT22;54412;51.206;6.888;2023-02-15T15:54:19;14.20;99.90
5246;DHT22;54412;51.206;6.888;2023-02-15T15:57:02;14.00;99.90
5246;DHT22;54412;51.206;6.888;2023-02-15T15:59:31;13.80;99.90
5246;DHT22;54412;51.206;6.888;2023-02-15T16:02:07;13.90;99.90
5246;DHT22;54412;51.206;6.888;2023-02-15T16:04:43;13.80;99.90
5246;DHT22;54412;51.206;6.888;2023-02-15T16:07:23;13.80;99.90
5246;DHT22;54412;51.206;6.888;2023-02-15T16:09:57;13.60;99.90
5246;DHT22;54412;51.206;6.888;2023-02-15T16:12:35;13.50;99.90
5246;DHT22;54412;51.206;6.888;2023-02-15T16:15:20;13.60;99.90
5246;DHT22;54412;51.206;6.888;2023-02-15T16:17:52;13.50;99.90
5246;DHT22;54412;51.206;6.888;2023-02-15T16:20:27;13.50;99.90
5246;DHT22;54412;51.206;6.888;2023-02-15T16:23:13;13.30;99.90
5246;DHT22;54412;51.206;6.888;2023-02-15T16:29:12;13.30;99.90
5246;DHT22;54412;51.206;6.888;2023-02-15T16:31:40;13.30;99.90
5246;DHT22;54412;51.206;6.888;2023-02-15T16:34:14;13.10;99.90
5246;DHT22;54412;51.206;6.888;2023-02-15T16:36:42;12.90;99.90
5246;DHT22;54412;51.206;6.888;2023-02-15T16:39:16;12.80;99.90
5246;DHT22;54412;51.206;6.888;2023-02-15T16:41:44;12.70;99.90
5246;DHT22;54412;51.206;6.888;2023-02-15T16:44:20;12.70;99.90
5246;DHT22;54412;51.206;6.888;2023-02-15T16:46:49;12.50;99.90
5246;DHT22;54412;51.206;6.888;2023-02-15T16:49:25;12.40;99.90
5246;DHT22;54412;51.206;6.888;2023-02-15T16:51:58;12.40;99.90
5246;DHT22;54412;51.206;6.888;2023-02-15T16:54:27;12.40;99.90
5246;DHT22;54412;51.206;6.888;2023-02-15T16:56:56;12.40;99.90
5246;DHT22;54412;51.206;6.888;2023-02-15T17:02:30;12.30;99.90
5246;DHT22;54412;51.206;6.888;2023-02-15T17:05:18;12.20;99.90
5246;DHT22;54412;51.206;6.888;2023-02-15T17:08:03;12.10;99.90
5246;DHT22;54412;51.206;6.888;2023-02-15T17:10:34;12.00;99.90
5246;DHT22;54412;51.206;6.888;2023-02-15T17:13:14;12.00;99.90
5246;DHT22;54412;51.206;6.888;2023-02-15T17:18:51;12.00;99.90
5246;DHT22;54412;51.206;6.888;2023-02-15T17:21:20;12.00;99.90
5246;DHT22;54412;51.206;6.888;2023-02-15T17:23:57;12.00;99.90
5246;DHT22;54412;51.206;6.888;2023-02-15T17:26:31;12.10;99.90
5246;DHT22;54412;51.206;6.888;2023-02-15T17:29:02;12.00;99.90
5246;DHT22;54412;51.206;6.888;2023-02-15T17:31:47;11.90;99.90
5246;DHT22;54412;51.206;6.888;2023-02-15T17:42:49;11.80;99.90
5246;DHT22;54412;51.206;6.888;2023-02-15T17:45:16;11.70;99.90
5246;DHT22;54412;51.206;6.888;2023-02-15T17:47:42;11.60;99.90
5246;DHT22;54412;51.206;6.888;2023-02-15T17:50:20;11.70;99.90
5246;DHT22;54412;51.206;6.888;2023-02-15T17:52:47;11.60;99.90
5246;DHT22;54412;51.206;6.888;2023-02-15T17:55:16;11.70;99.90
5246;DHT22;54412;51.206;6.888;2023-02-15T17:58:04;11.60;99.90
5246;DHT22;54412;51.206;6.888;2023-02-15T18:00:34;11.60;99.90
5246;DHT22;54412;51.206;6.888;2023-02-15T18:03:21;11.50;99.90
5246;DHT22;54412;51.206;6.888;2023-02-15T18:06:15;11.40;99.90
5246;DHT22;54412;51.206;6.888;2023-02-15T18:08:59;11.50;99.90
5246;DHT22;54412;51.206;6.888;2023-02-15T18:11:43;11.40;99.90
5246;DHT22;54412;51.206;6.888;2023-02-15T18:14:13;11.30;99.90
5246;DHT22;54412;51.206;6.888;2023-02-15T18:16:42;11.20;99.90
5246;DHT22;54412;51.206;6.888;2023-02-15T18:19:21;11.30;99.90
5246;DHT22;54412;51.206;6.888;2023-02-15T18:21:50;11.20;99.90
5246;DHT22;54412;51.206;6.888;2023-02-15T18:24:24;11.30;99.90
5246;DHT22;54412;51.206;6.888;2023-02-15T18:26:52;11.30;99.90
5246;DHT22;54412;51.206;6.888;2023-02-15T18:29:19;11.20;99.90
5246;DHT22;54412;51.206;6.888;2023-02-15T18:31:47;11.10;99.90
5246;DHT22;54412;51.206;6.888;2023-02-15T18:34:31;11.10;99.90
5246;DHT22;54412;51.206;6.888;2023-02-15T18:37:00;11.00;99.90
5246;DHT22;54412;51.206;6.888;2023-02-15T18:39:37;11.00;99.90
5246;DHT22;54412;51.206;6.888;2023-02-15T18:42:18;11.00;99.90
5246;DHT22;54412;51.206;6.888;2023-02-15T18:44:50;11.00;99.90
5246;DHT22;54412;51.206;6.888;2023-02-15T18:47:19;10.90;99.90
5246;DHT22;54412;51.206;6.888;2023-02-15T18:49:45;10.80;99.90
5246;DHT22;54412;51.206;6.888;2023-02-15T18:52:22;10.80;99.90
5246;DHT22;54412;51.206;6.888;2023-02-15T18:54:55;10.80;99.90
5246;DHT22;54412;51.206;6.888;2023-02-15T18:57:26;10.70;99.90
5246;DHT22;54412;51.206;6.888;2023-02-15T18:59:53;10.60;99.90
5246;DHT22;54412;51.206;6.888;2023-02-15T19:02:18;10.70;99.90
5246;DHT22;54412;51.206;6.888;2023-02-15T19:04:45;10.50;99.90
5246;DHT22;54412;51.206;6.888;2023-02-15T19:07:31;10.50;99.90
5246;DHT22;54412;51.206;6.888;2023-02-15T19:10:00;10.40;99.90
5246;DHT22;54412;51.206;6.888;2023-02-15T19:12:28;10.40;99.90
5246;DHT22;54412;51.206;6.888;2023-02-15T19:14:54;10.50;99.90
5246;DHT22;54412;51.206;6.888;2023-02-15T19:17:22;10.30;99.90
5246;DHT22;54412;51.206;6.888;2023-02-15T19:19:49;10.30;99.90
5246;DHT22;54412;51.206;6.888;2023-02-15T19:22:25;10.30;99.90
5246;DHT22;54412;51.206;6.888;2023-02-15T19:24:53;10.20;99.90
5246;DHT22;54412;51.206;6.888;2023-02-15T19:27:32;10.20;99.90
5246;DHT22;54412;51.206;6.888;2023-02-15T19:30:03;10.10;99.90
5246;DHT22;54412;51.206;6.888;2023-02-15T19:32:47;10.10;99.90
5246;DHT22;54412;51.206;6.888;2023-02-15T19:35:18;10.00;99.90
5246;DHT22;54412;51.206;6.888;2023-02-15T19:37:49;10.10;99.90
5246;DHT22;54412;51.206;6.888;2023-02-15T19:40:24;9.90;99.90
5246;DHT22;54412;51.206;6.888;2023-02-15T19:42:54;9.80;99.90
5246;DHT22;54412;51.206;6.888;2023-02-15T19:45:23;9.90;99.90
5246;DHT22;54412;51.206;6.888;2023-02-15T19:47:52;9.80;99.90
5246;DHT22;54412;51.206;6.888;2023-02-15T19:50:21;9.80;99.90
5246;DHT22;54412;51.206;6.888;2023-02-15T19:52:50;9.80;99.90
5246;DHT22;54412;51.206;6.888;2023-02-15T19:55:23;9.90;99.90
5246;DHT22;54412;51.206;6.888;2023-02-15T19:57:54;9.90;99.90
5246;DHT22;54412;51.206;6.888;2023-02-15T20:00:23;9.90;99.90
5246;DHT22;54412;51.206;6.888;2023-02-15T20:02:55;9.90;99.90